Gladstone, North Dakota
Current Conditions -  °F | °C
As of 11:22 AM on Thursday 27 Nov 2014 (Local Time) from KDIK Reporting Station
Overcast Overcast  
Wind Chill:   Ceiling: 7000
Heat Index: 20°   Visibility: 10mi
Dew Point: 16°   Wind: 21mph
Humidity: 85%   Direction: 150°SSE
Pressure: 29.95"   Gusts: NA
Location:  46.86°N, 102.57°W
Report Text: KDIK 271822Z AUTO 15018KT 10SM FEW009 OVC070 M07/M09 A2995 RMK AO2 PK WND 14027/1809 T10671089
Loading
Personal Weather Stations






























Interactive Weather Map New forecast layout! Learn more

10-Day Weather Forecast

Advertisements
Track Severe Weather on mobile